sensor_id;sensor_type;location;lat;lon;timestamp;temperature;humidity
5027;DHT22;2532;52.480;13.354;2023-07-22T04:00:49;16.20;99.90
5027;DHT22;2532;52.480;13.354;2023-07-22T04:03:16;16.20;99.90
5027;DHT22;2532;52.480;13.354;2023-07-22T04:05:43;16.20;99.90
5027;DHT22;2532;52.480;13.354;2023-07-22T04:08:10;16.20;99.90
5027;DHT22;2532;52.480;13.354;2023-07-22T04:10:37;16.20;99.90
5027;DHT22;2532;52.480;13.354;2023-07-22T04:13:04;16.20;99.90
5027;DHT22;2532;52.480;13.354;2023-07-22T04:15:31;16.20;99.90
5027;DHT22;2532;52.480;13.354;2023-07-22T04:17:59;16.20;99.90
5027;DHT22;2532;52.480;13.354;2023-07-22T04:20:26;16.20;99.90
5027;DHT22;2532;52.480;13.354;2023-07-22T04:22:53;16.20;99.90
5027;DHT22;2532;52.480;13.354;2023-07-22T04:25:20;16.30;99.90
5027;DHT22;2532;52.480;13.354;2023-07-22T04:27:46;16.20;99.90
5027;DHT22;2532;52.480;13.354;2023-07-22T04:30:13;16.30;99.90
5027;DHT22;2532;52.480;13.354;2023-07-22T04:32:46;16.30;99.90
5027;DHT22;2532;52.480;13.354;2023-07-22T04:35:15;16.30;99.90
5027;DHT22;2532;52.480;13.354;2023-07-22T04:37:42;16.30;99.90
5027;DHT22;2532;52.480;13.354;2023-07-22T04:40:10;16.30;99.90
5027;DHT22;2532;52.480;13.354;2023-07-22T04:42:40;16.30;99.90
5027;DHT22;2532;52.480;13.354;2023-07-22T04:45:08;16.30;99.90
5027;DHT22;2532;52.480;13.354;2023-07-22T04:47:36;16.30;99.90
5027;DHT22;2532;52.480;13.354;2023-07-22T04:50:04;16.30;99.90
5027;DHT22;2532;52.480;13.354;2023-07-22T04:52:34;16.40;99.90
5027;DHT22;2532;52.480;13.354;2023-07-22T04:55:01;16.40;99.90
5027;DHT22;2532;52.480;13.354;2023-07-22T04:57:34;16.30;99.90
5027;DHT22;2532;52.480;13.354;2023-07-22T05:00:01;16.30;99.90
5027;DHT22;2532;52.480;13.354;2023-07-22T05:02:30;16.40;99.90
5027;DHT22;2532;52.480;13.354;2023-07-22T05:04:57;16.40;99.90
5027;DHT22;2532;52.480;13.354;2023-07-22T05:07:23;16.40;99.90
5027;DHT22;2532;52.480;13.354;2023-07-22T05:09:52;16.40;99.90
5027;DHT22;2532;52.480;13.354;2023-07-22T05:12:19;16.50;99.90
5027;DHT22;2532;52.480;13.354;2023-07-22T05:14:46;16.50;99.90
5027;DHT22;2532;52.480;13.354;2023-07-22T05:17:13;16.60;99.90
5027;DHT22;2532;52.480;13.354;2023-07-22T05:19:39;16.60;99.90
5027;DHT22;2532;52.480;13.354;2023-07-22T05:22:06;16.60;99.90
5027;DHT22;2532;52.480;13.354;2023-07-22T05:24:33;16.70;99.90
5027;DHT22;2532;52.480;13.354;2023-07-22T05:27:02;16.70;99.90
5027;DHT22;2532;52.480;13.354;2023-07-22T05:29:29;16.70;99.90
5027;DHT22;2532;52.480;13.354;2023-07-22T05:31:56;16.70;99.90
5027;DHT22;2532;52.480;13.354;2023-07-22T05:34:23;16.80;99.90
5027;DHT22;2532;52.480;13.354;2023-07-22T05:36:50;16.80;99.90
5027;DHT22;2532;52.480;13.354;2023-07-22T05:39:17;16.80;99.90
5027;DHT22;2532;52.480;13.354;2023-07-22T05:41:44;16.80;99.90
5027;DHT22;2532;52.480;13.354;2023-07-22T05:44:14;16.80;99.90
5027;DHT22;2532;52.480;13.354;2023-07-22T05:46:41;16.80;99.90
5027;DHT22;2532;52.480;13.354;2023-07-22T05:49:08;16.80;99.90
5027;DHT22;2532;52.480;13.354;2023-07-22T05:51:36;16.80;99.90
5027;DHT22;2532;52.480;13.354;2023-07-22T05:54:03;16.90;99.90
5027;DHT22;2532;52.480;13.354;2023-07-22T05:56:30;16.90;99.90
5027;DHT22;2532;52.480;13.354;2023-07-22T05:58:57;16.90;99.90
5027;DHT22;2532;52.480;13.354;2023-07-22T06:01:25;16.90;99.90
5027;DHT22;2532;52.480;13.354;2023-07-22T06:03:52;17.00;99.90
5027;DHT22;2532;52.480;13.354;2023-07-22T06:06:19;17.00;99.90
5027;DHT22;2532;52.480;13.354;2023-07-22T06:08:46;17.00;99.90
5027;DHT22;2532;52.480;13.354;2023-07-22T06:11:13;17.10;99.90
5027;DHT22;2532;52.480;13.354;2023-07-22T06:13:40;17.10;99.90
5027;DHT22;2532;52.480;13.354;2023-07-22T06:16:07;17.10;99.90
5027;DHT22;2532;52.480;13.354;2023-07-22T06:18:35;17.10;99.90
5027;DHT22;2532;52.480;13.354;2023-07-22T06:21:02;17.10;99.90
5027;DHT22;2532;52.480;13.354;2023-07-22T06:23:29;17.20;99.90
5027;DHT22;2532;52.480;13.354;2023-07-22T06:25:56;17.30;99.90
5027;DHT22;2532;52.480;13.354;2023-07-22T06:28:25;17.30;99.90
5027;DHT22;2532;52.480;13.354;2023-07-22T06:30:57;17.40;99.90
5027;DHT22;2532;52.480;13.354;2023-07-22T06:33:24;17.40;99.90
5027;DHT22;2532;52.480;13.354;2023-07-22T06:35:52;17.50;99.90
5027;DHT22;2532;52.480;13.354;2023-07-22T06:38:19;17.50;99.90
5027;DHT22;2532;52.480;13.354;2023-07-22T06:40:46;17.60;99.90
5027;DHT22;2532;52.480;13.354;2023-07-22T06:43:13;17.60;99.90
5027;DHT22;2532;52.480;13.354;2023-07-22T06:45:40;17.60;99.90
5027;DHT22;2532;52.480;13.354;2023-07-22T06:48:06;17.70;99.90
5027;DHT22;2532;52.480;13.354;2023-07-22T06:50:33;17.80;99.90
5027;DHT22;2532;52.480;13.354;2023-07-22T06:53:02;17.90;99.90
5027;DHT22;2532;52.480;13.354;2023-07-22T06:55:29;17.90;99.70
5027;DHT22;2532;52.480;13.354;2023-07-22T06:57:56;18.00;99.40
5027;DHT22;2532;52.480;13.354;2023-07-22T07:00:23;18.10;99.40
5027;DHT22;2532;52.480;13.354;2023-07-22T07:02:50;18.10;98.70
5027;DHT22;2532;52.480;13.354;2023-07-22T07:05:17;18.10;98.30
5027;DHT22;2532;52.480;13.354;2023-07-22T07:07:44;18.10;98.20
5027;DHT22;2532;52.480;13.354;2023-07-22T07:10:12;18.10;97.90
5027;DHT22;2532;52.480;13.354;2023-07-22T07:12:39;18.10;98.40
5027;DHT22;2532;52.480;13.354;2023-07-22T07:15:07;18.10;98.40
5027;DHT22;2532;52.480;13.354;2023-07-22T07:17:34;18.10;98.30
5027;DHT22;2532;52.480;13.354;2023-07-22T07:20:01;18.20;98.00
5027;DHT22;2532;52.480;13.354;2023-07-22T07:22:28;18.30;97.80
5027;DHT22;2532;52.480;13.354;2023-07-22T07:24:55;18.30;97.50
5027;DHT22;2532;52.480;13.354;2023-07-22T07:27:23;18.40;97.30
5027;DHT22;2532;52.480;13.354;2023-07-22T07:29:50;18.40;97.10
5027;DHT22;2532;52.480;13.354;2023-07-22T07:32:17;18.50;97.10
5027;DHT22;2532;52.480;13.354;2023-07-22T07:34:44;18.60;97.00
5027;DHT22;2532;52.480;13.354;2023-07-22T07:37:11;18.60;97.00
5027;DHT22;2532;52.480;13.354;2023-07-22T07:39:38;18.60;96.70
5027;DHT22;2532;52.480;13.354;2023-07-22T07:42:05;18.70;96.60
5027;DHT22;2532;52.480;13.354;2023-07-22T07:44:34;18.70;96.40
5027;DHT22;2532;52.480;13.354;2023-07-22T07:47:00;18.70;96.30
5027;DHT22;2532;52.480;13.354;2023-07-22T07:49:27;18.80;95.90
5027;DHT22;2532;52.480;13.354;2023-07-22T07:51:54;18.80;96.00
5027;DHT22;2532;52.480;13.354;2023-07-22T07:54:21;18.80;96.10
5027;DHT22;2532;52.480;13.354;2023-07-22T07:56:57;19.00;96.20
5027;DHT22;2532;52.480;13.354;2023-07-22T07:59:38;19.10;95.60
5027;DHT22;2532;52.480;13.354;2023-07-22T08:02:06;19.10;95.40
5027;DHT22;2532;52.480;13.354;2023-07-22T08:04:35;19.20;94.50
5027;DHT22;2532;52.480;13.354;2023-07-22T08:07:06;19.30;94.50
5027;DHT22;2532;52.480;13.354;2023-07-22T08:09:34;19.30;94.10
5027;DHT22;2532;52.480;13.354;2023-07-22T08:12:01;19.20;94.20
5027;DHT22;2532;52.480;13.354;2023-07-22T08:14:28;19.20;94.20
5027;DHT22;2532;52.480;13.354;2023-07-22T08:16:57;19.20;93.80
5027;DHT22;2532;52.480;13.354;2023-07-22T08:19:24;19.20;93.50
5027;DHT22;2532;52.480;13.354;2023-07-22T08:21:51;19.20;93.60
5027;DHT22;2532;52.480;13.354;2023-07-22T08:24:18;19.30;93.40
5027;DHT22;2532;52.480;13.354;2023-07-22T08:26:44;19.30;93.40
5027;DHT22;2532;52.480;13.354;2023-07-22T08:29:11;19.40;93.30
5027;DHT22;2532;52.480;13.354;2023-07-22T08:31:38;19.30;93.30
5027;DHT22;2532;52.480;13.354;2023-07-22T08:34:07;19.40;93.50
5027;DHT22;2532;52.480;13.354;2023-07-22T08:36:33;19.40;93.30
5027;DHT22;2532;52.480;13.354;2023-07-22T08:39:01;19.50;93.10
5027;DHT22;2532;52.480;13.354;2023-07-22T08:41:29;19.60;93.30
5027;DHT22;2532;52.480;13.354;2023-07-22T08:43:59;19.60;93.40
5027;DHT22;2532;52.480;13.354;2023-07-22T08:46:28;19.70;93.20
5027;DHT22;2532;52.480;13.354;2023-07-22T08:48:56;19.70;93.10
5027;DHT22;2532;52.480;13.354;2023-07-22T08:51:27;19.70;93.00
5027;DHT22;2532;52.480;13.354;2023-07-22T08:53:56;19.70;92.80
5027;DHT22;2532;52.480;13.354;2023-07-22T08:56:24;19.70;92.60
5027;DHT22;2532;52.480;13.354;2023-07-22T08:58:51;19.80;92.20
5027;DHT22;2532;52.480;13.354;2023-07-22T09:01:19;19.80;92.40
5027;DHT22;2532;52.480;13.354;2023-07-22T09:03:49;19.80;92.10
5027;DHT22;2532;52.480;13.354;2023-07-22T09:06:18;19.70;92.20
5027;DHT22;2532;52.480;13.354;2023-07-22T09:08:46;19.80;92.40
5027;DHT22;2532;52.480;13.354;2023-07-22T09:11:13;19.80;92.00
5027;DHT22;2532;52.480;13.354;2023-07-22T09:13:43;19.80;92.10
5027;DHT22;2532;52.480;13.354;2023-07-22T09:16:11;19.90;91.80
5027;DHT22;2532;52.480;13.354;2023-07-22T09:18:39;20.00;91.60
5027;DHT22;2532;52.480;13.354;2023-07-22T09:21:06;20.10;91.80
5027;DHT22;2532;52.480;13.354;2023-07-22T09:23:33;20.10;91.70
5027;DHT22;2532;52.480;13.354;2023-07-22T09:26:12;20.10;91.60
5027;DHT22;2532;52.480;13.354;2023-07-22T09:29:03;20.20;91.60
5027;DHT22;2532;52.480;13.354;2023-07-22T09:31:32;20.20;91.50
5027;DHT22;2532;52.480;13.354;2023-07-22T09:34:09;20.30;91.40
5027;DHT22;2532;52.480;13.354;2023-07-22T09:36:49;20.40;91.20
5027;DHT22;2532;52.480;13.354;2023-07-22T09:39:16;20.50;90.50
5027;DHT22;2532;52.480;13.354;2023-07-22T09:41:45;20.60;90.50
5027;DHT22;2532;52.480;13.354;2023-07-22T09:44:12;20.60;90.20
5027;DHT22;2532;52.480;13.354;2023-07-22T09:46:39;20.70;89.80
5027;DHT22;2532;52.480;13.354;2023-07-22T09:49:09;20.70;89.50
5027;DHT22;2532;52.480;13.354;2023-07-22T09:51:38;20.80;88.50
5027;DHT22;2532;52.480;13.354;2023-07-22T09:54:06;20.90;88.70
5027;DHT22;2532;52.480;13.354;2023-07-22T09:56:46;20.90;87.90
5027;DHT22;2532;52.480;13.354;2023-07-22T09:59:13;20.90;87.80
5027;DHT22;2532;52.480;13.354;2023-07-22T10:01:41;21.00;87.60
5027;DHT22;2532;52.480;13.354;2023-07-22T10:04:08;21.00;88.50
5027;DHT22;2532;52.480;13.354;2023-07-22T10:06:38;21.00;87.30
5027;DHT22;2532;52.480;13.354;2023-07-22T10:09:07;21.10;86.10
5027;DHT22;2532;52.480;13.354;2023-07-22T10:11:37;21.20;86.00
5027;DHT22;2532;52.480;13.354;2023-07-22T10:14:07;21.20;86.50
5027;DHT22;2532;52.480;13.354;2023-07-22T10:16:34;21.30;85.70
5027;DHT22;2532;52.480;13.354;2023-07-22T10:19:02;21.40;85.90
5027;DHT22;2532;52.480;13.354;2023-07-22T10:21:30;21.60;85.40
5027;DHT22;2532;52.480;13.354;2023-07-22T10:24:00;21.60;84.60
5027;DHT22;2532;52.480;13.354;2023-07-22T10:26:28;21.60;84.70
5027;DHT22;2532;52.480;13.354;2023-07-22T10:28:55;21.60;84.20
5027;DHT22;2532;52.480;13.354;2023-07-22T10:31:24;21.60;84.60
5027;DHT22;2532;52.480;13.354;2023-07-22T10:33:51;21.70;84.50
5027;DHT22;2532;52.480;13.354;2023-07-22T10:36:18;21.70;82.50
5027;DHT22;2532;52.480;13.354;2023-07-22T10:38:55;21.60;81.80
5027;DHT22;2532;52.480;13.354;2023-07-22T10:41:22;21.60;82.00
5027;DHT22;2532;52.480;13.354;2023-07-22T10:43:54;21.60;81.60
5027;DHT22;2532;52.480;13.354;2023-07-22T10:46:31;21.60;81.60
5027;DHT22;2532;52.480;13.354;2023-07-22T10:49:09;21.60;82.10
5027;DHT22;2532;52.480;13.354;2023-07-22T10:51:36;21.70;81.40
5027;DHT22;2532;52.480;13.354;2023-07-22T10:54:10;21.70;81.10
5027;DHT22;2532;52.480;13.354;2023-07-22T10:56:37;21.70;80.10
5027;DHT22;2532;52.480;13.354;2023-07-22T10:59:05;21.80;80.20
5027;DHT22;2532;52.480;13.354;2023-07-22T11:01:35;21.80;80.10
5027;DHT22;2532;52.480;13.354;2023-07-22T11:04:14;21.80;79.90
5027;DHT22;2532;52.480;13.354;2023-07-22T11:06:55;21.90;79.80
5027;DHT22;2532;52.480;13.354;2023-07-22T11:09:36;21.80;78.70
5027;DHT22;2532;52.480;13.354;2023-07-22T11:12:05;21.80;79.10
5027;DHT22;2532;52.480;13.354;2023-07-22T11:14:33;21.80;78.50
5027;DHT22;2532;52.480;13.354;2023-07-22T11:17:03;21.80;78.70
5027;DHT22;2532;52.480;13.354;2023-07-22T11:19:31;21.80;77.30
5027;DHT22;2532;52.480;13.354;2023-07-22T11:22:00;21.80;77.70
5027;DHT22;2532;52.480;13.354;2023-07-22T11:24:28;21.80;78.10
5027;DHT22;2532;52.480;13.354;2023-07-22T11:26:55;21.80;78.20
5027;DHT22;2532;52.480;13.354;2023-07-22T11:29:22;21.80;79.50
5027;DHT22;2532;52.480;13.354;2023-07-22T11:31:50;21.80;78.10
5027;DHT22;2532;52.480;13.354;2023-07-22T11:34:19;21.90;79.10
5027;DHT22;2532;52.480;13.354;2023-07-22T11:36:47;22.10;78.20
5027;DHT22;2532;52.480;13.354;2023-07-22T11:39:16;22.10;78.00
5027;DHT22;2532;52.480;13.354;2023-07-22T11:41:43;22.20;78.70
5027;DHT22;2532;52.480;13.354;2023-07-22T11:44:12;22.30;77.20
5027;DHT22;2532;52.480;13.354;2023-07-22T11:46:52;22.30;77.40
5027;DHT22;2532;52.480;13.354;2023-07-22T11:49:29;22.40;77.40
5027;DHT22;2532;52.480;13.354;2023-07-22T11:51:57;22.50;76.70
5027;DHT22;2532;52.480;13.354;2023-07-22T11:54:25;22.60;76.20
5027;DHT22;2532;52.480;13.354;2023-07-22T11:56:52;22.70;76.30
5027;DHT22;2532;52.480;13.354;2023-07-22T11:59:33;22.70;75.10
5027;DHT22;2532;52.480;13.354;2023-07-22T12:02:00;22.80;74.30
5027;DHT22;2532;52.480;13.354;2023-07-22T12:04:29;22.90;74.40
5027;DHT22;2532;52.480;13.354;2023-07-22T12:06:56;22.90;73.30
5027;DHT22;2532;52.480;13.354;2023-07-22T12:09:23;23.00;73.20
5027;DHT22;2532;52.480;13.354;2023-07-22T12:11:55;22.90;72.10
5027;DHT22;2532;52.480;13.354;2023-07-22T12:14:23;22.90;72.30
5027;DHT22;2532;52.480;13.354;2023-07-22T12:16:55;22.90;72.90
5027;DHT22;2532;52.480;13.354;2023-07-22T12:19:23;23.00;73.60
5027;DHT22;2532;52.480;13.354;2023-07-22T12:21:51;23.00;73.80
5027;DHT22;2532;52.480;13.354;2023-07-22T12:24:18;23.00;74.60
5027;DHT22;2532;52.480;13.354;2023-07-22T12:26:45;23.10;73.90
5027;DHT22;2532;52.480;13.354;2023-07-22T12:29:12;23.10;71.90
5027;DHT22;2532;52.480;13.354;2023-07-22T12:31:39;23.20;72.00
5027;DHT22;2532;52.480;13.354;2023-07-22T12:34:06;23.30;71.20
5027;DHT22;2532;52.480;13.354;2023-07-22T12:36:33;23.40;71.10
5027;DHT22;2532;52.480;13.354;2023-07-22T12:39:01;23.50;71.60
5027;DHT22;2532;52.480;13.354;2023-07-22T12:41:28;23.60;70.10
5027;DHT22;2532;52.480;13.354;2023-07-22T12:43:55;23.70;70.70
5027;DHT22;2532;52.480;13.354;2023-07-22T12:46:22;23.70;70.90
5027;DHT22;2532;52.480;13.354;2023-07-22T12:48:48;23.70;69.50
5027;DHT22;2532;52.480;13.354;2023-07-22T12:51:15;23.70;69.40
5027;DHT22;2532;52.480;13.354;2023-07-22T12:53:42;23.70;69.20
5027;DHT22;2532;52.480;13.354;2023-07-22T12:56:10;23.70;69.10
5027;DHT22;2532;52.480;13.354;2023-07-22T12:58:37;23.70;69.20
5027;DHT22;2532;52.480;13.354;2023-07-22T13:01:04;23.80;69.50
5027;DHT22;2532;52.480;13.354;2023-07-22T13:03:31;23.80;69.10
5027;DHT22;2532;52.480;13.354;2023-07-22T13:05:58;23.90;69.70
5027;DHT22;2532;52.480;13.354;2023-07-22T13:08:25;24.00;69.50
5027;DHT22;2532;52.480;13.354;2023-07-22T13:10:52;24.10;69.60
5027;DHT22;2532;52.480;13.354;2023-07-22T13:13:20;24.10;68.50
5027;DHT22;2532;52.480;13.354;2023-07-22T13:15:47;24.20;68.40
5027;DHT22;2532;52.480;13.354;2023-07-22T13:18:14;24.30;68.30
5027;DHT22;2532;52.480;13.354;2023-07-22T13:20:42;24.30;67.00
5027;DHT22;2532;52.480;13.354;2023-07-22T13:23:09;24.30;67.30
5027;DHT22;2532;52.480;13.354;2023-07-22T13:25:36;24.30;67.10
5027;DHT22;2532;52.480;13.354;2023-07-22T13:28:03;24.20;67.10
5027;DHT22;2532;52.480;13.354;2023-07-22T13:30:31;24.20;67.60
5027;DHT22;2532;52.480;13.354;2023-07-22T13:32:58;24.30;67.70
5027;DHT22;2532;52.480;13.354;2023-07-22T13:35:25;24.30;67.00
5027;DHT22;2532;52.480;13.354;2023-07-22T13:37:52;24.30;66.50
5027;DHT22;2532;52.480;13.354;2023-07-22T13:40:19;24.20;66.60
5027;DHT22;2532;52.480;13.354;2023-07-22T13:42:46;24.20;67.30
5027;DHT22;2532;52.480;13.354;2023-07-22T13:45:13;24.30;66.80
5027;DHT22;2532;52.480;13.354;2023-07-22T13:47:42;24.40;67.30
5027;DHT22;2532;52.480;13.354;2023-07-22T13:50:09;24.50;67.50
5027;DHT22;2532;52.480;13.354;2023-07-22T13:52:36;24.60;66.40
5027;DHT22;2532;52.480;13.354;2023-07-22T13:55:04;24.70;65.60
5027;DHT22;2532;52.480;13.354;2023-07-22T13:57:31;24.70;65.40
5027;DHT22;2532;52.480;13.354;2023-07-22T13:59:58;24.80;65.20
5027;DHT22;2532;52.480;13.354;2023-07-22T14:02:25;24.80;66.00
5027;DHT22;2532;52.480;13.354;2023-07-22T14:04:53;24.90;65.70
5027;DHT22;2532;52.480;13.354;2023-07-22T14:07:20;24.90;65.40
5027;DHT22;2532;52.480;13.354;2023-07-22T14:09:47;24.90;64.20
5027;DHT22;2532;52.480;13.354;2023-07-22T14:12:14;24.90;64.40
5027;DHT22;2532;52.480;13.354;2023-07-22T14:14:40;24.80;64.50
5027;DHT22;2532;52.480;13.354;2023-07-22T14:17:07;24.70;64.90
5027;DHT22;2532;52.480;13.354;2023-07-22T14:19:34;24.70;64.50
5027;DHT22;2532;52.480;13.354;2023-07-22T14:22:03;24.60;65.00
5027;DHT22;2532;52.480;13.354;2023-07-22T14:24:30;24.50;64.90
5027;DHT22;2532;52.480;13.354;2023-07-22T14:26:57;24.40;65.50
5027;DHT22;2532;52.480;13.354;2023-07-22T14:29:23;24.40;65.30
5027;DHT22;2532;52.480;13.354;2023-07-22T14:31:51;24.40;64.90
5027;DHT22;2532;52.480;13.354;2023-07-22T14:34:18;24.30;65.10
5027;DHT22;2532;52.480;13.354;2023-07-22T14:36:45;24.30;64.80
5027;DHT22;2532;52.480;13.354;2023-07-22T14:39:13;24.30;65.50
5027;DHT22;2532;52.480;13.354;2023-07-22T14:41:41;24.30;64.70
5027;DHT22;2532;52.480;13.354;2023-07-22T14:44:09;24.30;64.80
5027;DHT22;2532;52.480;13.354;2023-07-22T14:46:36;24.30;65.60
5027;DHT22;2532;52.480;13.354;2023-07-22T14:49:04;24.20;64.50
5027;DHT22;2532;52.480;13.354;2023-07-22T14:51:35;24.20;64.70
5027;DHT22;2532;52.480;13.354;2023-07-22T14:54:02;24.10;64.90
5027;DHT22;2532;52.480;13.354;2023-07-22T14:56:30;24.00;65.10
5027;DHT22;2532;52.480;13.354;2023-07-22T14:58:57;24.00;65.50
5027;DHT22;2532;52.480;13.354;2023-07-22T15:01:24;23.90;65.50
5027;DHT22;2532;52.480;13.354;2023-07-22T15:03:51;23.90;65.60
5027;DHT22;2532;52.480;13.354;2023-07-22T15:06:18;23.90;66.10
5027;DHT22;2532;52.480;13.354;2023-07-22T15:08:44;24.00;65.80
5027;DHT22;2532;52.480;13.354;2023-07-22T15:11:11;24.00;66.20
5027;DHT22;2532;52.480;13.354;2023-07-22T15:13:40;24.10;65.90
5027;DHT22;2532;52.480;13.354;2023-07-22T15:16:06;24.00;65.40
5027;DHT22;2532;52.480;13.354;2023-07-22T15:18:33;24.00;65.90
5027;DHT22;2532;52.480;13.354;2023-07-22T15:21:00;23.90;65.70
5027;DHT22;2532;52.480;13.354;2023-07-22T15:23:27;23.90;66.10
5027;DHT22;2532;52.480;13.354;2023-07-22T15:25:54;23.80;66.40
5027;DHT22;2532;52.480;13.354;2023-07-22T15:28:21;23.80;67.20
5027;DHT22;2532;52.480;13.354;2023-07-22T15:30:49;23.80;67.00
5027;DHT22;2532;52.480;13.354;2023-07-22T15:33:16;23.80;67.10
5027;DHT22;2532;52.480;13.354;2023-07-22T15:35:43;23.80;66.60
5027;DHT22;2532;52.480;13.354;2023-07-22T15:38:10;23.80;67.10
5027;DHT22;2532;52.480;13.354;2023-07-22T15:40:37;23.90;66.90
5027;DHT22;2532;52.480;13.354;2023-07-22T15:43:04;24.10;66.60
5027;DHT22;2532;52.480;13.354;2023-07-22T15:45:31;24.30;67.20
5027;DHT22;2532;52.480;13.354;2023-07-22T15:48:00;24.60;66.70
5027;DHT22;2532;52.480;13.354;2023-07-22T15:50:28;25.00;65.70
5027;DHT22;2532;52.480;13.354;2023-07-22T15:52:55;25.30;65.70
5027;DHT22;2532;52.480;13.354;2023-07-22T15:55:22;25.60;64.20
5027;DHT22;2532;52.480;13.354;2023-07-22T15:57:49;25.80;63.90
5027;DHT22;2532;52.480;13.354;2023-07-22T16:00:16;26.00;62.80
5027;DHT22;2532;52.480;13.354;2023-07-22T16:02:43;26.10;61.90
5027;DHT22;2532;52.480;13.354;2023-07-22T16:05:11;26.20;61.60
5027;DHT22;2532;52.480;13.354;2023-07-22T16:07:38;26.30;61.30
5027;DHT22;2532;52.480;13.354;2023-07-22T16:10:06;26.40;61.50
5027;DHT22;2532;52.480;13.354;2023-07-22T16:12:33;26.60;61.90
5027;DHT22;2532;52.480;13.354;2023-07-22T16:17:32;27.00;60.10
5027;DHT22;2532;52.480;13.354;2023-07-22T16:19:59;27.10;59.80
5027;DHT22;2532;52.480;13.354;2023-07-22T16:22:27;27.10;60.00
5027;DHT22;2532;52.480;13.354;2023-07-22T16:24:54;27.00;59.90
5027;DHT22;2532;52.480;13.354;2023-07-22T16:27:21;26.90;59.80
5027;DHT22;2532;52.480;13.354;2023-07-22T16:29:48;26.80;60.00
5027;DHT22;2532;52.480;13.354;2023-07-22T16:32:15;26.70;59.70
5027;DHT22;2532;52.480;13.354;2023-07-22T16:34:42;26.60;58.90
5027;DHT22;2532;52.480;13.354;2023-07-22T16:37:09;26.60;59.20
5027;DHT22;2532;52.480;13.354;2023-07-22T16:39:38;26.70;58.80
5027;DHT22;2532;52.480;13.354;2023-07-22T16:42:05;26.80;58.60
5027;DHT22;2532;52.480;13.354;2023-07-22T16:44:32;26.90;58.60
5027;DHT22;2532;52.480;13.354;2023-07-22T16:46:59;26.90;58.40
5027;DHT22;2532;52.480;13.354;2023-07-22T16:49:27;26.90;58.40
5027;DHT22;2532;52.480;13.354;2023-07-22T16:51:54;26.80;58.20
5027;DHT22;2532;52.480;13.354;2023-07-22T16:54:21;26.60;58.50
5027;DHT22;2532;52.480;13.354;2023-07-22T16:56:50;26.40;59.00
5027;DHT22;2532;52.480;13.354;2023-07-22T16:59:16;26.30;59.30
5027;DHT22;2532;52.480;13.354;2023-07-22T17:01:43;26.10;59.50
5027;DHT22;2532;52.480;13.354;2023-07-22T17:04:10;25.90;59.80
5027;DHT22;2532;52.480;13.354;2023-07-22T17:06:37;25.80;60.00
5027;DHT22;2532;52.480;13.354;2023-07-22T17:09:04;25.60;59.80
5027;DHT22;2532;52.480;13.354;2023-07-22T17:11:31;25.50;59.60
5027;DHT22;2532;52.480;13.354;2023-07-22T17:14:00;25.40;60.00
5027;DHT22;2532;52.480;13.354;2023-07-22T17:16:26;25.20;60.00
5027;DHT22;2532;52.480;13.354;2023-07-22T17:18:53;25.10;60.80
5027;DHT22;2532;52.480;13.354;2023-07-22T17:21:20;24.90;61.00
5027;DHT22;2532;52.480;13.354;2023-07-22T17:23:48;24.80;61.30
5027;DHT22;2532;52.480;13.354;2023-07-22T17:26:15;24.80;61.20
5027;DHT22;2532;52.480;13.354;2023-07-22T17:28:42;24.70;61.50
5027;DHT22;2532;52.480;13.354;2023-07-22T17:31:11;24.60;61.80
5027;DHT22;2532;52.480;13.354;2023-07-22T17:33:40;24.60;61.70
5027;DHT22;2532;52.480;13.354;2023-07-22T17:36:07;24.60;62.00
5027;DHT22;2532;52.480;13.354;2023-07-22T17:38:34;24.70;62.10
5027;DHT22;2532;52.480;13.354;2023-07-22T17:41:01;24.80;61.60
5027;DHT22;2532;52.480;13.354;2023-07-22T17:43:28;25.00;62.20
5027;DHT22;2532;52.480;13.354;2023-07-22T17:45:55;25.30;61.20
5027;DHT22;2532;52.480;13.354;2023-07-22T17:48:23;25.60;61.20
5027;DHT22;2532;52.480;13.354;2023-07-22T17:50:50;26.00;60.60
5027;DHT22;2532;52.480;13.354;2023-07-22T17:53:17;26.30;59.60
5027;DHT22;2532;52.480;13.354;2023-07-22T17:55:44;26.60;59.30
5027;DHT22;2532;52.480;13.354;2023-07-22T17:58:11;26.60;58.90
5027;DHT22;2532;52.480;13.354;2023-07-22T18:00:38;26.70;58.40
5027;DHT22;2532;52.480;13.354;2023-07-22T18:03:04;26.90;58.00
5027;DHT22;2532;52.480;13.354;2023-07-22T18:05:33;27.20;57.70
5027;DHT22;2532;52.480;13.354;2023-07-22T18:07:59;27.30;57.70
5027;DHT22;2532;52.480;13.354;2023-07-22T18:10:26;27.20;58.00
5027;DHT22;2532;52.480;13.354;2023-07-22T18:12:56;27.10;57.30
5027;DHT22;2532;52.480;13.354;2023-07-22T18:15:23;26.90;57.10
5027;DHT22;2532;52.480;13.354;2023-07-22T18:17:50;26.60;57.70
5027;DHT22;2532;52.480;13.354;2023-07-22T18:20:17;26.40;58.30
5027;DHT22;2532;52.480;13.354;2023-07-22T18:22:45;26.10;58.40
5027;DHT22;2532;52.480;13.354;2023-07-22T18:25:12;25.90;58.80
5027;DHT22;2532;52.480;13.354;2023-07-22T18:27:40;25.80;59.10
5027;DHT22;2532;52.480;13.354;2023-07-22T18:30:07;25.70;59.50
5027;DHT22;2532;52.480;13.354;2023-07-22T18:32:34;25.50;59.50
5027;DHT22;2532;52.480;13.354;2023-07-22T18:35:01;25.30;60.70
5027;DHT22;2532;52.480;13.354;2023-07-22T18:37:28;25.10;60.70
5027;DHT22;2532;52.480;13.354;2023-07-22T18:39:56;25.00;60.70
5027;DHT22;2532;52.480;13.354;2023-07-22T18:42:23;24.80;62.10
5027;DHT22;2532;52.480;13.354;2023-07-22T18:44:50;24.70;63.00
5027;DHT22;2532;52.480;13.354;2023-07-22T18:47:17;24.60;63.30
5027;DHT22;2532;52.480;13.354;2023-07-22T18:49:44;24.40;63.80
5027;DHT22;2532;52.480;13.354;2023-07-22T18:52:12;24.30;64.10
5027;DHT22;2532;52.480;13.354;2023-07-22T18:54:39;24.20;64.80
5027;DHT22;2532;52.480;13.354;2023-07-22T18:57:08;24.10;65.30
5027;DHT22;2532;52.480;13.354;2023-07-22T18:59:36;24.00;66.10
5027;DHT22;2532;52.480;13.354;2023-07-22T19:02:04;23.90;66.60
5027;DHT22;2532;52.480;13.354;2023-07-22T19:04:31;23.80;66.60
5027;DHT22;2532;52.480;13.354;2023-07-22T19:06:58;23.70;67.50
5027;DHT22;2532;52.480;13.354;2023-07-22T19:09:25;23.60;68.00
5027;DHT22;2532;52.480;13.354;2023-07-22T19:11:52;23.50;68.10
5027;DHT22;2532;52.480;13.354;2023-07-22T19:14:20;23.40;68.20
5027;DHT22;2532;52.480;13.354;2023-07-22T19:16:51;23.30;68.20
5027;DHT22;2532;52.480;13.354;2023-07-22T19:19:18;23.20;68.70
5027;DHT22;2532;52.480;13.354;2023-07-22T19:21:48;23.10;68.90
5027;DHT22;2532;52.480;13.354;2023-07-22T19:24:15;23.10;69.10
5027;DHT22;2532;52.480;13.354;2023-07-22T19:26:42;23.00;70.20
5027;DHT22;2532;52.480;13.354;2023-07-22T19:29:09;22.90;70.30
5027;DHT22;2532;52.480;13.354;2023-07-22T19:31:37;22.90;70.40
5027;DHT22;2532;52.480;13.354;2023-07-22T19:34:04;22.90;71.10
5027;DHT22;2532;52.480;13.354;2023-07-22T19:36:31;22.80;71.30
5027;DHT22;2532;52.480;13.354;2023-07-22T19:38:58;22.80;71.60
5027;DHT22;2532;52.480;13.354;2023-07-22T19:41:25;22.70;71.60
5027;DHT22;2532;52.480;13.354;2023-07-22T19:43:52;22.70;72.30
5027;DHT22;2532;52.480;13.354;2023-07-22T19:46:19;22.70;71.90
5027;DHT22;2532;52.480;13.354;2023-07-22T19:48:47;22.60;72.10
5027;DHT22;2532;52.480;13.354;2023-07-22T19:51:14;22.60;72.30